createdAt,value
2022-10-20T00:02:26.510Z,77.31
2022-10-20T00:04:53.998Z,76.86
2022-10-20T00:07:23.463Z,76.69
2022-10-20T00:09:50.852Z,77.30
2022-10-20T00:12:18.520Z,77.20
2022-10-20T00:14:45.853Z,77.46
2022-10-20T00:17:13.454Z,77.56
2022-10-20T00:19:40.769Z,77.67
2022-10-20T00:22:08.161Z,77.32
2022-10-20T00:24:35.743Z,77.40
2022-10-20T00:27:03.197Z,77.90
2022-10-20T00:29:31.144Z,77.58
2022-10-20T00:31:59.904Z,77.55
2022-10-20T00:34:27.211Z,77.19
2022-10-20T00:36:54.768Z,77.03
2022-10-20T00:39:24.423Z,77.22
2022-10-20T00:41:51.928Z,77.30
2022-10-20T00:44:55.939Z,77.13
2022-10-20T00:47:32.494Z,76.83
2022-10-20T00:50:06.659Z,76.59
2022-10-20T00:52:34.687Z,76.52
2022-10-20T00:55:05.284Z,76.38
2022-10-20T00:57:33.293Z,76.75
2022-10-20T01:00:00.958Z,77.29
2022-10-20T01:02:28.457Z,78.46
2022-10-20T01:04:56.028Z,78.22
2022-10-20T01:07:23.848Z,78.26
2022-10-20T01:09:51.814Z,77.78
2022-10-20T01:12:34.252Z,78.27
2022-10-20T01:15:19.851Z,79.05
2022-10-20T01:17:57.990Z,77.74
2022-10-20T01:20:38.556Z,78.12
2022-10-20T01:23:39.009Z,77.85
2022-10-20T01:26:18.497Z,77.16
2022-10-20T01:28:54.928Z,77.93
2022-10-20T01:31:28.813Z,77.96
2022-10-20T01:34:17.986Z,78.32
2022-10-20T01:36:51.417Z,78.53
2022-10-20T01:39:35.725Z,78.26
2022-10-20T01:42:09.040Z,77.96
2022-10-20T01:44:37.261Z,78.59
2022-10-20T01:47:05.865Z,79.31
2022-10-20T01:49:32.973Z,78.92
2022-10-20T01:52:00.648Z,78.64
2022-10-20T01:54:29.270Z,78.60
2022-10-20T01:57:38.450Z,78.96
2022-10-20T02:00:06.108Z,78.21
2022-10-20T02:02:58.843Z,79.00
2022-10-20T02:05:57.791Z,79.18
2022-10-20T02:08:46.962Z,78.39
2022-10-20T02:11:37.990Z,78.31
2022-10-20T02:14:06.258Z,78.92
2022-10-20T02:16:37.091Z,78.31
2022-10-20T02:19:06.431Z,78.40
2022-10-20T02:21:33.623Z,78.55
2022-10-20T02:24:04.807Z,78.86
2022-10-20T02:26:35.682Z,79.00
2022-10-20T02:29:13.380Z,78.72
2022-10-20T02:31:40.610Z,78.74
2022-10-20T02:34:08.094Z,78.90
2022-10-20T02:36:39.339Z,79.21
2022-10-20T02:39:06.723Z,78.45
2022-10-20T02:41:33.882Z,78.68
2022-10-20T02:44:01.143Z,79.03
2022-10-20T02:46:28.168Z,79.09
2022-10-20T02:48:55.235Z,79.04
2022-10-20T02:51:22.285Z,78.71
2022-10-20T02:53:49.971Z,78.69
2022-10-20T02:56:17.043Z,78.55
2022-10-20T02:58:44.412Z,78.77
2022-10-20T03:01:11.533Z,78.88
2022-10-20T03:03:38.572Z,79.95
2022-10-20T03:06:14.097Z,79.71
2022-10-20T03:08:41.787Z,79.35
2022-10-20T03:11:09.553Z,79.19
2022-10-20T03:13:36.665Z,79.60
2022-10-20T03:16:03.827Z,79.43
2022-10-20T03:18:31.024Z,79.54
2022-10-20T03:20:58.080Z,79.28
2022-10-20T03:23:25.257Z,78.86
2022-10-20T03:25:52.319Z,79.35
2022-10-20T03:28:20.044Z,79.47
2022-10-20T03:30:47.122Z,79.28
2022-10-20T03:33:14.165Z,78.92
2022-10-20T03:35:41.207Z,79.63
2022-10-20T03:38:08.287Z,79.35
2022-10-20T03:40:35.310Z,79.88
2022-10-20T03:43:02.454Z,79.42
2022-10-20T03:45:29.526Z,79.42
2022-10-20T03:47:56.673Z,79.51
2022-10-20T03:50:24.008Z,78.84
2022-10-20T03:52:51.342Z,79.13
2022-10-20T03:55:19.394Z,79.62
2022-10-20T03:57:46.458Z,79.45
2022-10-20T04:00:13.584Z,79.11
2022-10-20T04:02:45.590Z,78.57
2022-10-20T04:05:17.535Z,79.00
2022-10-20T04:07:45.288Z,79.56
2022-10-20T04:10:13.310Z,79.42
2022-10-20T04:12:40.385Z,79.15
2022-10-20T04:15:08.614Z,79.11
2022-10-20T04:17:36.906Z,78.93
2022-10-20T04:20:05.190Z,79.20
2022-10-20T04:22:32.280Z,79.17
2022-10-20T04:24:59.343Z,79.23
2022-10-20T04:27:26.436Z,79.58
2022-10-20T04:29:53.514Z,79.82
2022-10-20T04:32:20.626Z,79.55
2022-10-20T04:34:47.772Z,79.70
2022-10-20T04:37:14.822Z,79.68
2022-10-20T04:39:42.053Z,79.17
2022-10-20T04:42:09.326Z,79.55
2022-10-20T04:44:36.362Z,79.73
2022-10-20T04:47:03.411Z,79.70
2022-10-20T04:49:30.538Z,79.52
2022-10-20T04:52:00.955Z,80.02
2022-10-20T04:54:28.521Z,79.74
2022-10-20T04:56:55.898Z,80.19
2022-10-20T04:59:22.965Z,80.45
2022-10-20T05:01:50.121Z,80.54
2022-10-20T05:04:21.284Z,80.59
2022-10-20T05:06:49.172Z,80.94
2022-10-20T05:09:16.721Z,80.60
2022-10-20T05:11:44.289Z,80.10
2022-10-20T05:14:11.354Z,80.20
2022-10-20T05:16:38.737Z,80.03
2022-10-20T05:19:05.843Z,80.15
2022-10-20T05:21:33.423Z,80.20
2022-10-20T05:24:02.993Z,80.35
2022-10-20T05:26:34.830Z,80.08
2022-10-20T05:29:06.463Z,80.29
2022-10-20T05:31:37.642Z,80.33
2022-10-20T05:34:04.747Z,80.34
2022-10-20T05:36:31.956Z,80.90
2022-10-20T05:38:59.308Z,80.64
2022-10-20T05:41:28.659Z,81.21
2022-10-20T05:44:00.793Z,81.36
2022-10-20T05:46:30.119Z,80.94
2022-10-20T05:49:00.657Z,81.05
2022-10-20T05:51:31.064Z,80.94
2022-10-20T05:53:58.918Z,81.48
2022-10-20T05:56:28.467Z,80.99
2022-10-20T05:58:56.693Z,80.78
2022-10-20T06:01:26.383Z,80.88
2022-10-20T06:03:58.511Z,80.76
2022-10-20T06:06:30.096Z,80.88
2022-10-20T06:08:59.219Z,80.68
2022-10-20T06:11:26.737Z,80.91
2022-10-20T06:13:53.854Z,81.43
2022-10-20T06:16:22.847Z,81.03
2022-10-20T06:18:50.258Z,81.20
2022-10-20T06:21:20.143Z,81.13
2022-10-20T06:23:47.371Z,81.81
2022-10-20T06:26:19.603Z,81.36
2022-10-20T06:28:50.476Z,81.37
2022-10-20T06:31:19.975Z,81.73
2022-10-20T06:33:47.492Z,82.18
2022-10-20T06:36:15.056Z,82.19
2022-10-20T06:38:42.655Z,82.17
2022-10-20T06:41:12.558Z,82.16
2022-10-20T06:43:39.646Z,82.19
2022-10-20T06:46:10.501Z,81.77
2022-10-20T06:48:38.009Z,81.92
2022-10-20T06:51:10.958Z,82.00
2022-10-20T06:53:41.502Z,81.87
2022-10-20T06:56:13.586Z,82.40
2022-10-20T06:58:42.263Z,81.27
2022-10-20T07:01:15.820Z,81.63
2022-10-20T07:03:44.333Z,81.90
2022-10-20T07:06:17.661Z,81.24
2022-10-20T07:08:45.070Z,81.07
2022-10-20T07:11:14.572Z,80.71
2022-10-20T07:13:42.295Z,80.43
2022-10-20T07:16:12.181Z,80.77
2022-10-20T07:18:39.645Z,79.94
2022-10-20T07:21:09.463Z,79.82
2022-10-20T07:23:36.601Z,79.55
2022-10-20T07:26:13.206Z,78.96
2022-10-20T07:28:42.967Z,78.86
2022-10-20T07:31:16.135Z,75.92
2022-10-20T07:33:43.451Z,73.48
2022-10-20T07:36:18.665Z,71.66
2022-10-20T07:38:47.229Z,67.02
2022-10-20T07:41:15.445Z,67.68
2022-10-20T07:43:42.960Z,66.34
2022-10-20T07:46:11.297Z,66.91
2022-10-20T07:48:38.819Z,64.77
2022-10-20T07:51:30.582Z,64.17
2022-10-20T07:54:03.265Z,64.91
2022-10-20T07:56:33.254Z,64.47
2022-10-20T07:59:00.330Z,63.87
2022-10-20T08:01:27.714Z,63.05
2022-10-20T08:03:54.828Z,64.20
2022-10-20T08:06:21.943Z,62.70
2022-10-20T08:08:49.166Z,63.94
2022-10-20T08:11:16.574Z,64.35
2022-10-20T08:13:43.681Z,63.29
2022-10-20T08:16:13.223Z,61.23
2022-10-20T08:18:52.428Z,62.14
2022-10-20T08:21:21.534Z,62.12
2022-10-20T08:23:49.517Z,61.79
2022-10-20T08:26:22.167Z,60.53
2022-10-20T08:28:50.252Z,61.31
2022-10-20T08:31:17.627Z,62.47
2022-10-20T08:33:47.732Z,61.81
2022-10-20T08:36:17.366Z,60.92
2022-10-20T08:38:44.711Z,60.67
2022-10-20T08:41:55.388Z,59.58
2022-10-20T08:44:29.840Z,59.00
2022-10-20T08:46:57.262Z,60.39
2022-10-20T08:49:33.096Z,58.51
2022-10-20T08:52:01.107Z,57.25
2022-10-20T08:54:28.508Z,56.63
2022-10-20T08:56:55.638Z,56.79
2022-10-20T08:59:29.941Z,55.97
2022-10-20T09:01:57.913Z,56.19
2022-10-20T09:04:28.100Z,55.38
2022-10-20T09:06:59.336Z,55.59
2022-10-20T09:09:29.716Z,55.52
2022-10-20T09:12:05.669Z,55.10
2022-10-20T09:14:36.173Z,54.04
2022-10-20T09:17:04.629Z,54.68
2022-10-20T09:19:33.173Z,53.53
2022-10-20T09:22:05.365Z,52.66
2022-10-20T09:24:35.305Z,53.42
2022-10-20T09:27:39.888Z,53.43
2022-10-20T09:30:14.840Z,52.34
2022-10-20T09:32:46.844Z,52.08
2022-10-20T09:35:34.187Z,52.58
2022-10-20T09:38:17.249Z,52.33
2022-10-20T09:40:46.459Z,50.98
2022-10-20T09:43:17.315Z,50.49
2022-10-20T09:46:01.006Z,50.87
2022-10-20T09:48:39.290Z,51.27
2022-10-20T09:53:59.281Z,49.95
2022-10-20T09:56:35.778Z,50.72
2022-10-20T09:59:06.534Z,50.17
2022-10-20T10:01:33.697Z,50.50
2022-10-20T10:04:02.128Z,50.30
2022-10-20T10:06:39.846Z,49.00
2022-10-20T10:09:27.129Z,50.11
2022-10-20T10:12:03.711Z,51.19
2022-10-20T10:14:33.340Z,50.87
2022-10-20T10:17:00.710Z,49.21
2022-10-20T10:19:30.796Z,48.24
2022-10-20T10:22:00.567Z,48.54
2022-10-20T10:24:36.290Z,48.54
2022-10-20T10:27:03.838Z,47.75
2022-10-20T10:29:35.519Z,47.95
2022-10-20T10:32:26.243Z,47.26
2022-10-20T10:35:16.823Z,48.19
2022-10-20T10:37:45.098Z,48.58
2022-10-20T10:40:16.166Z,46.71
2022-10-20T10:42:48.135Z,46.70
2022-10-20T10:45:50.839Z,47.28
2022-10-20T10:48:40.656Z,46.35
2022-10-20T10:51:32.394Z,45.48
2022-10-20T10:54:11.851Z,46.36
2022-10-20T10:56:51.121Z,43.80
2022-10-20T10:59:23.623Z,43.33
2022-10-20T11:02:02.965Z,44.03
2022-10-20T11:04:55.843Z,42.98
2022-10-20T11:07:31.862Z,42.97
2022-10-20T11:10:36.234Z,42.20
2022-10-20T11:13:13.190Z,43.16
2022-10-20T11:16:06.795Z,43.34
2022-10-20T11:19:01.489Z,43.36
2022-10-20T11:21:45.364Z,41.96
2022-10-20T11:24:30.994Z,42.62
2022-10-20T11:27:09.676Z,42.70
2022-10-20T11:29:42.641Z,40.63
2022-10-20T11:32:27.239Z,42.05
2022-10-20T11:35:03.496Z,41.86
2022-10-20T11:37:36.195Z,41.54
2022-10-20T11:40:09.242Z,42.05
2022-10-20T11:43:01.295Z,41.91
2022-10-20T11:45:34.579Z,40.21
2022-10-20T11:48:22.663Z,39.55
2022-10-20T11:51:15.715Z,40.35
2022-10-20T11:54:07.461Z,39.86
2022-10-20T11:56:55.699Z,37.65
2022-10-20T12:00:02.079Z,38.70
2022-10-20T12:03:00.394Z,37.74
2022-10-20T12:05:48.771Z,37.41
2022-10-20T12:08:40.205Z,37.77
2022-10-20T12:11:26.129Z,36.93
2022-10-20T12:13:59.023Z,37.58
2022-10-20T12:16:54.221Z,37.89
2022-10-20T12:19:22.476Z,37.44
2022-10-20T12:22:01.281Z,36.91
2022-10-20T12:24:39.650Z,37.28
2022-10-20T12:27:09.527Z,37.37
2022-10-20T12:29:36.484Z,36.62
2022-10-20T12:32:21.868Z,35.67
2022-10-20T12:34:56.031Z,36.10
2022-10-20T12:37:30.640Z,37.03
2022-10-20T12:40:17.572Z,36.28
2022-10-20T12:42:49.613Z,36.37
2022-10-20T12:45:19.391Z,34.54
2022-10-20T12:47:49.348Z,36.54
2022-10-20T12:50:36.019Z,34.27
2022-10-20T12:53:13.581Z,34.15
2022-10-20T12:55:42.167Z,33.85
2022-10-20T12:58:27.568Z,32.96
2022-10-20T13:00:57.025Z,32.96
2022-10-20T13:03:43.664Z,32.66
2022-10-20T13:06:23.365Z,32.39
2022-10-20T13:09:03.563Z,32.89
2022-10-20T13:11:40.787Z,32.47
2022-10-20T13:14:17.457Z,32.59
2022-10-20T13:16:44.426Z,32.87
2022-10-20T13:19:16.923Z,32.72
2022-10-20T13:21:47.391Z,34.22
2022-10-20T13:24:29.824Z,33.88
2022-10-20T13:26:59.717Z,34.07
2022-10-20T13:29:38.150Z,34.28
2022-10-20T13:32:31.934Z,33.90
2022-10-20T13:35:06.957Z,34.25
2022-10-20T13:37:45.189Z,35.16
2022-10-20T13:40:30.959Z,34.68
2022-10-20T13:43:23.460Z,34.85
2022-10-20T13:46:11.470Z,35.29
2022-10-20T13:48:56.846Z,35.49
2022-10-20T13:51:26.976Z,36.35
2022-10-20T13:54:00.944Z,35.94
2022-10-20T13:56:35.498Z,35.61
2022-10-20T13:59:18.936Z,35.85
2022-10-20T14:01:51.998Z,36.32
2022-10-20T14:04:25.010Z,36.00
2022-10-20T14:06:52.574Z,36.24
2022-10-20T14:09:24.665Z,36.80
2022-10-20T14:11:54.900Z,37.35
2022-10-20T14:14:24.718Z,36.99
2022-10-20T14:16:54.705Z,37.51
2022-10-20T14:19:23.577Z,37.68
2022-10-20T14:21:56.177Z,38.34
2022-10-20T14:24:29.025Z,39.04
2022-10-20T14:29:32.167Z,40.55
2022-10-20T14:31:59.786Z,40.84
2022-10-20T14:34:34.511Z,41.09
2022-10-20T14:37:02.357Z,41.86
2022-10-20T14:39:33.778Z,41.57
2022-10-20T14:42:03.127Z,42.49
2022-10-20T14:44:31.899Z,42.26
2022-10-20T14:47:05.269Z,42.63
2022-10-20T14:49:35.464Z,42.77
2022-10-20T14:52:21.859Z,43.53
2022-10-20T14:54:50.954Z,42.69
2022-10-20T14:57:17.939Z,43.35
2022-10-20T15:00:06.054Z,43.59
2022-10-20T15:02:42.834Z,44.12
2022-10-20T15:05:24.173Z,44.74
2022-10-20T15:07:51.557Z,45.13
2022-10-20T15:10:21.948Z,45.46
2022-10-20T15:12:50.566Z,45.68
2022-10-20T15:15:22.351Z,46.44
2022-10-20T15:17:55.602Z,46.68
2022-10-20T15:20:34.766Z,47.01
2022-10-20T15:23:04.391Z,47.69
2022-10-20T15:25:40.864Z,48.52
2022-10-20T15:28:15.310Z,48.44
2022-10-20T15:30:42.395Z,49.36
2022-10-20T15:33:09.816Z,50.00
2022-10-20T15:35:36.867Z,50.23
2022-10-20T15:38:03.950Z,50.70
2022-10-20T15:40:31.036Z,50.83
2022-10-20T15:42:58.126Z,51.61
2022-10-20T15:45:34.123Z,52.02
2022-10-20T15:48:01.174Z,52.43
2022-10-20T15:50:28.249Z,52.51
2022-10-20T15:52:55.366Z,52.27
2022-10-20T15:55:32.293Z,53.13
2022-10-20T15:57:59.667Z,52.98
2022-10-20T16:00:28.470Z,53.10
2022-10-20T16:02:56.819Z,53.67
2022-10-20T16:05:24.540Z,53.42
2022-10-20T16:07:54.046Z,53.94
2022-10-20T16:10:23.002Z,54.76
2022-10-20T16:12:50.513Z,55.26
2022-10-20T16:15:17.975Z,55.47
2022-10-20T16:17:46.213Z,55.70
2022-10-20T16:20:14.520Z,56.14
2022-10-20T16:22:41.863Z,56.89
2022-10-20T16:25:09.297Z,57.02
2022-10-20T16:27:36.807Z,58.04
2022-10-20T16:30:05.939Z,58.42
2022-10-20T16:32:35.305Z,57.99
2022-10-20T16:35:04.356Z,58.34
2022-10-20T16:37:32.646Z,58.54
2022-10-20T16:40:00.446Z,58.54
2022-10-20T16:42:30.412Z,59.05
2022-10-20T16:44:57.729Z,59.10
2022-10-20T16:47:26.202Z,59.23
2022-10-20T16:49:53.536Z,58.89
2022-10-20T16:52:20.713Z,59.01
2022-10-20T16:54:48.055Z,59.15
2022-10-20T16:57:15.348Z,59.38
2022-10-20T16:59:49.920Z,59.52
2022-10-20T17:02:18.662Z,60.00
2022-10-20T17:04:49.564Z,60.19
2022-10-20T17:07:17.764Z,60.20
2022-10-20T17:09:45.469Z,60.33
2022-10-20T17:12:12.585Z,60.30
2022-10-20T17:14:40.727Z,60.48
2022-10-20T17:17:07.785Z,60.37
2022-10-20T17:19:34.904Z,60.50
2022-10-20T17:22:02.029Z,60.38
2022-10-20T17:24:29.157Z,60.53
2022-10-20T17:26:56.420Z,60.62
2022-10-20T17:29:25.956Z,60.49
2022-10-20T17:31:53.354Z,60.31
2022-10-20T17:34:20.452Z,60.25
2022-10-20T17:36:47.645Z,60.42
2022-10-20T17:39:16.942Z,59.96
2022-10-20T17:41:44.097Z,60.00
2022-10-20T17:44:11.634Z,60.10
2022-10-20T17:46:39.019Z,59.64
2022-10-20T17:49:06.427Z,59.67
2022-10-20T17:51:34.905Z,59.58
2022-10-20T17:54:02.947Z,59.73
2022-10-20T17:56:32.266Z,59.77
2022-10-20T17:59:00.206Z,59.72
2022-10-20T18:01:38.099Z,59.72
2022-10-20T18:04:10.621Z,59.55
2022-10-20T18:06:38.571Z,59.85
2022-10-20T18:09:11.649Z,59.98
2022-10-20T18:11:41.056Z,60.06
2022-10-20T18:14:08.141Z,59.88
2022-10-20T18:16:36.885Z,59.79
2022-10-20T18:19:04.627Z,59.78
2022-10-20T18:21:32.304Z,59.98
2022-10-20T18:24:04.312Z,59.79
2022-10-20T18:26:33.064Z,59.70
2022-10-20T18:29:01.739Z,59.61
2022-10-20T18:31:31.082Z,60.04
2022-10-20T18:34:04.221Z,60.45
2022-10-20T18:36:35.639Z,60.76
2022-10-20T18:39:04.884Z,60.90
2022-10-20T18:41:37.329Z,60.92
2022-10-20T18:44:11.819Z,61.23
2022-10-20T18:46:39.673Z,61.33
2022-10-20T18:49:07.779Z,61.05
2022-10-20T18:51:35.899Z,61.47
2022-10-20T18:54:05.626Z,61.15
2022-10-20T18:56:32.807Z,61.08
2022-10-20T18:59:02.131Z,61.06
2022-10-20T19:01:32.071Z,61.02
2022-10-20T19:04:00.376Z,61.25
2022-10-20T19:06:30.302Z,61.32
2022-10-20T19:08:59.170Z,61.39
2022-10-20T19:11:29.152Z,61.03
2022-10-20T19:13:56.791Z,61.04
2022-10-20T19:16:26.755Z,61.47
2022-10-20T19:18:55.432Z,61.21
2022-10-20T19:21:23.447Z,60.88
2022-10-20T19:24:02.941Z,61.06
2022-10-20T19:26:32.395Z,61.25
2022-10-20T19:29:05.952Z,61.24
2022-10-20T19:31:38.287Z,61.50
2022-10-20T19:34:08.386Z,61.32
2022-10-20T19:36:36.002Z,61.44
2022-10-20T19:39:05.543Z,61.35
2022-10-20T19:41:32.762Z,61.15
2022-10-20T19:44:00.240Z,61.08
2022-10-20T19:46:27.421Z,60.54
2022-10-20T19:48:54.552Z,60.46
2022-10-20T19:51:21.973Z,60.44
2022-10-20T19:53:49.526Z,60.49
2022-10-20T19:56:17.181Z,60.37
2022-10-20T19:58:46.538Z,60.37
2022-10-20T20:01:14.888Z,60.38
2022-10-20T20:03:42.272Z,60.53
2022-10-20T20:06:20.971Z,60.41
2022-10-20T20:08:54.561Z,60.46
2022-10-20T20:11:27.216Z,60.25
2022-10-20T20:13:57.275Z,59.82
2022-10-20T20:16:25.042Z,59.49
2022-10-20T20:18:52.456Z,59.66
2022-10-20T20:21:20.061Z,59.79
2022-10-20T20:23:58.822Z,59.73
2022-10-20T20:26:28.702Z,59.26
2022-10-20T20:28:56.118Z,59.29
2022-10-20T20:31:23.902Z,59.38
2022-10-20T20:33:51.080Z,59.26
2022-10-20T20:36:18.290Z,58.58
2022-10-20T20:38:45.688Z,58.86
2022-10-20T20:41:15.863Z,58.94
2022-10-20T20:43:45.216Z,58.82
2022-10-20T20:46:17.288Z,58.92
2022-10-20T20:48:44.820Z,58.99
2022-10-20T20:51:12.621Z,58.93
2022-10-20T20:53:40.742Z,58.61
2022-10-20T20:56:20.589Z,58.85
2022-10-20T20:58:50.456Z,58.86
2022-10-20T21:01:23.888Z,59.00
2022-10-20T21:03:55.625Z,58.87
2022-10-20T21:06:28.837Z,59.05
2022-10-20T21:09:01.432Z,59.14
2022-10-20T21:11:29.963Z,58.88
2022-10-20T21:13:58.838Z,58.97
2022-10-20T21:16:27.039Z,58.97
2022-10-20T21:18:56.267Z,58.72
2022-10-20T21:21:31.618Z,59.08
2022-10-20T21:24:00.137Z,58.81
2022-10-20T21:26:28.338Z,58.80
2022-10-20T21:28:56.308Z,58.64
2022-10-20T21:31:25.157Z,58.94
2022-10-20T21:33:54.458Z,59.32
2022-10-20T21:36:22.706Z,59.18
2022-10-20T21:38:51.185Z,59.12
2022-10-20T21:41:26.712Z,59.10
2022-10-20T21:43:55.790Z,59.16
2022-10-20T21:46:31.947Z,59.53
2022-10-20T21:49:04.707Z,59.58
2022-10-20T21:51:34.267Z,59.41
2022-10-20T21:54:06.897Z,59.39
2022-10-20T21:56:36.756Z,59.44
2022-10-20T21:59:05.024Z,59.70
2022-10-20T22:01:32.276Z,59.87
2022-10-20T22:03:59.611Z,60.21
2022-10-20T22:06:27.501Z,60.12
2022-10-20T22:08:57.039Z,60.34
2022-10-20T22:11:32.697Z,60.57
2022-10-20T22:13:59.872Z,60.71
2022-10-20T22:16:29.950Z,61.20
2022-10-20T22:19:08.235Z,60.96
2022-10-20T22:21:37.476Z,60.99
2022-10-20T22:24:05.263Z,61.18
2022-10-20T22:26:32.707Z,61.19
2022-10-20T22:29:00.536Z,61.46
2022-10-20T22:31:27.848Z,61.44
2022-10-20T22:33:56.149Z,61.83
2022-10-20T22:36:23.280Z,61.92
2022-10-20T22:38:50.363Z,61.88
2022-10-20T22:41:18.563Z,61.83
2022-10-20T22:43:45.681Z,61.69
2022-10-20T22:46:12.790Z,61.72
2022-10-20T22:48:39.822Z,62.02
2022-10-20T22:51:08.369Z,61.93
2022-10-20T22:53:36.676Z,61.66
2022-10-20T22:56:19.130Z,61.89
2022-10-20T22:58:47.037Z,62.16
2022-10-20T23:01:19.138Z,62.71
2022-10-20T23:03:46.605Z,63.22
2022-10-20T23:06:17.224Z,63.47
2022-10-20T23:08:46.382Z,63.35
2022-10-20T23:11:14.955Z,63.57
2022-10-20T23:13:42.413Z,63.50
2022-10-20T23:16:10.074Z,63.94
2022-10-20T23:18:37.659Z,63.97
2022-10-20T23:21:05.297Z,63.70
2022-10-20T23:23:34.273Z,63.47
2022-10-20T23:26:03.831Z,63.36
2022-10-20T23:28:32.721Z,63.22
2022-10-20T23:31:12.741Z,63.47
2022-10-20T23:33:41.020Z,63.29
2022-10-20T23:36:08.481Z,62.99
2022-10-20T23:38:35.767Z,63.08
2022-10-20T23:41:03.453Z,63.29
2022-10-20T23:43:30.546Z,63.47
2022-10-20T23:45:57.817Z,63.08
2022-10-20T23:48:25.076Z,63.62
2022-10-20T23:50:52.103Z,63.80
2022-10-20T23:53:19.187Z,63.59
2022-10-20T23:55:46.636Z,64.05
2022-10-20T23:58:13.700Z,64.28
